Arcata Airport Arcata,Eureka US
ICAO: KACV
IATA: ACV
Category: Medium
Scheduled Services: Yes

Elevation: 221 ft
TransAlt. 18000 ft.

Airport Communications:
ASOS:118.525
SEATTLE CNTR:124.85
COAST GUARD AIR OPS:34.5
OAKLAND RDO:122.6
CTAF/UNICOM:123

KACV Zoom In..

If you have problems with the map follow the link
https://www.worldairports.se/pages/airport.php?
ICAO=KACV

Runways:

(A) RW 01 length 4501 ft width 150 ft
---- / hdg 13

(B) RW 14 length 6046 ft width 150 ft
---- / hdg 136

(C) RW 19 length 4501 ft width 150 ft
---- / hdg 193

(D) RW 32 length 6046 ft width 150 ft
ILS 109.50 / hdg 316

Location; KACV
Day. 14 / Time. 04.53 Zulu
* Altimeter: 30.05
* Temperature: 10° c. 50°f.
* Wind from: 350° Speed 08 kn.
Dewpoint: 08° c.
Visibility: 9 Statute Miles.
Clouds: Few 1700 ft.
Clouds: Scattered 5000 ft.
Clouds: Broken 1000 ft.

KACV 140453Z AUTO 35008KT 9SM FEW017 SCT050 BKN100 10/08 A3005 RMK AO2 RAE42 SLP182 P0003 T01000078


Wind From 350°
Speed 08 kn.

 
 
jpsmedia worldairports.se 2019   terms of use